Aeroporto :
LOGIN :

Iscrizione | Disclaimer

   EN    FR    IT 

 










Sommario :    VFR   VFR Marginale   IFR   IFR Intensivo   IFR Molto Intensivo
Visibilità : 
Base nubi : 
>= 8 km
>= 3000ft
5 / 8 km
1000 / 3000 ft
1500m / 5 km
500 / 1000 ft
800 / 1500m
200 / 500 ft
< 800m
< 200 ft
Simboli :   Temporali  Nebbia  Neve Forte  Precipitazioni Forti  Vento > 20 kt
SIGMETs :   Varie  Temporali  Ghiacco  Turbolenza  Onda orograficha  Ceneri Vulcaniche







- Altitudine del aeroporto : 157 ft
- Codice IATA : LIL
- Carte del aeroporto


LFQQ - Lille Lesquin

ULTIMO METAR :
  • 161600Z AUTO 34008KT 9000 -RA BKN020 OVC029 19/16 Q1020 TEMPO 3000 DZ BKN005 OVC013

METARs OBSOLETI :
  • 161530Z AUTO 34008KT 9999 FEW024 OVC033 20/15 Q1020 TEMPO 3000 DZ BKN005 OVC013
  • 161500Z AUTO 34008KT 300V360 9999 OVC032 21/15 Q1020 BECMG BKN013 OVC030
  • 161430Z AUTO 32009KT 9999 BKN030 BKN038 BKN046 21/15 Q1020 BECMG BKN013 OVC030
  • 161400Z AUTO 31007G18KT 260V340 9999 FEW027 BKN041 OVC064 22/15 Q1020 BECMG BKN013 OVC030
  • 161330Z AUTO 30007KT 260V340 9999 BKN026 BKN032 OVC039 22/15 Q1020 BECMG BKN013 OVC030

TAF TAF LFQQ
Valido dal 16 a 12 ore il 17 a 18 ore UTC


161100Z 1612/1718 28008KT 9999 SCT035
BECMG 1614/1617 34010KT BKN013 OVC030
TEMPO 1617/1621 3000 DZ BKN005 OVC013
BECMG 1622/1701 VRB02KT BKN025
BECMG 1707/1710 35012KT
ATIS : +33 3 20 16 19 54
Nessun NOTAM noto per questo aeroporto.



MetMap, La meteo Aeronautica in un colpo d'occhio ! - Copyright ORBIFLY Dicembre 2007 - Disclaimer

ORBIFLY MET'MAP TEAM :

Programmazione e sviluppo : Alexandra Zaïnal
Concezione e sviluppo : Baudouin d'Aumeries
Co-Programmazione e sviluppo : Marc-Olivier Méhu
Supporto tecnico e logistico : Manuel Goepfert
Aiuto per la traduzione : Arnaldo La Scala

Contatto : metmap@orbifly.com




FONTI E CREDITI :

   NOAA